Time;durP1;ratioP1;P1;durP2;ratioP2;P2;SDS_P1;SDS_P2;PMS_P1;PMS_P2;Temp;Humidity;BMP_temperature;BMP_pressure;BME280_temperature;BME280_humidity;BME280_pressure;Samples;Min_cycle;Max_cycle;Signal;HPM_P1;HPM_P2
2023/04/15 00:01:12;;;;;;;5.50;3.55;;;10.60;99.90;;;;;;4170249;28;20037;-66
2023/04/15 00:03:12;;;;;;;6.07;3.22;;;10.60;99.90;;;;;;4177045;28;20036;-66
2023/04/15 00:05:13;;;;;;;7.70;3.67;;;10.60;99.90;;;;;;4172862;28;20037;-67
2023/04/15 00:07:14;;;;;;;6.18;3.50;;;10.60;99.90;;;;;;4172609;28;20038;-66
2023/04/15 00:09:14;;;;;;;7.50;4.05;;;10.60;99.90;;;;;;4171086;28;20033;-67
2023/04/15 00:11:15;;;;;;;6.63;3.50;;;10.60;99.90;;;;;;4168951;28;20025;-67
2023/04/15 00:13:16;;;;;;;5.97;3.60;;;10.60;99.90;;;;;;4169334;28;20059;-66
2023/04/15 00:15:17;;;;;;;5.90;3.53;;;10.60;99.90;;;;;;4169650;28;20034;-66
2023/04/15 00:17:17;;;;;;;6.55;3.90;;;10.60;99.90;;;;;;4176270;28;20037;-67
2023/04/15 00:19:18;;;;;;;7.28;3.88;;;10.60;99.90;;;;;;4171458;28;20032;-66
2023/04/15 00:21:19;;;;;;;5.55;3.60;;;10.50;99.90;;;;;;4167504;28;20119;-66
2023/04/15 00:23:19;;;;;;;7.40;3.67;;;10.50;99.90;;;;;;4173498;28;20025;-66
2023/04/15 00:25:20;;;;;;;6.80;3.67;;;10.40;99.90;;;;;;4172548;28;20493;-66
2023/04/15 00:27:20;;;;;;;7.88;4.25;;;10.40;99.90;;;;;;4169418;28;20033;-66
2023/04/15 00:29:21;;;;;;;8.07;4.00;;;10.40;99.90;;;;;;4165610;28;20040;-66
2023/04/15 00:31:21;;;;;;;6.57;4.05;;;10.30;99.90;;;;;;4176089;28;20090;-66
2023/04/15 00:33:22;;;;;;;7.45;4.18;;;10.30;99.90;;;;;;4174527;28;20039;-66
2023/04/15 00:35:23;;;;;;;7.18;4.20;;;10.20;99.90;;;;;;4171741;28;20040;-66
2023/04/15 00:37:23;;;;;;;6.30;3.78;;;10.20;99.90;;;;;;4176446;28;20056;-66
2023/04/15 00:39:24;;;;;;;6.28;3.95;;;10.30;99.90;;;;;;4167490;28;20050;-66
2023/04/15 00:41:25;;;;;;;7.88;4.10;;;10.20;99.90;;;;;;4168754;28;20492;-66
2023/04/15 00:43:26;;;;;;;8.32;4.53;;;10.20;99.90;;;;;;4173795;28;20025;-66
2023/04/15 00:45:27;;;;;;;5.68;4.03;;;10.30;99.90;;;;;;4165502;28;20044;-66
2023/04/15 00:47:28;;;;;;;8.35;3.88;;;10.20;99.90;;;;;;4167902;28;20028;-66
2023/04/15 00:49:29;;;;;;;9.95;4.30;;;10.20;99.90;;;;;;4170750;28;20060;-66
2023/04/15 00:51:32;;;;;;;7.00;4.28;;;10.30;99.90;;;;;;4173018;28;20483;-66
2023/04/15 00:53:32;;;;;;;;;;;10.30;99.90;;;;;;4166342;28;20106;-66
2023/04/15 00:55:33;;;;;;;6.97;4.05;;;10.30;99.90;;;;;;4167326;28;20363;-66
2023/04/15 00:57:35;;;;;;;9.75;4.80;;;10.20;99.90;;;;;;4164120;28;20488;-66
2023/04/15 00:59:36;;;;;;;7.53;3.72;;;10.20;99.90;;;;;;4166617;28;20037;-66
2023/04/15 01:01:37;;;;;;;7.60;4.68;;;10.10;99.90;;;;;;4167371;28;20030;-65
2023/04/15 01:03:37;;;;;;;8.13;4.50;;;10.00;99.90;;;;;;4173286;28;20029;-65
2023/04/15 01:05:38;;;;;;;9.68;5.20;;;9.90;99.90;;;;;;4167553;28;20511;-66
2023/04/15 01:07:39;;;;;;;9.35;4.85;;;9.80;99.90;;;;;;4170679;28;20051;-66
2023/04/15 01:09:40;;;;;;;10.35;5.32;;;9.70;99.90;;;;;;4175878;28;20032;-66
2023/04/15 01:11:41;;;;;;;9.70;4.85;;;9.60;99.90;;;;;;4170429;28;20038;-66
2023/04/15 01:13:42;;;;;;;11.93;5.20;;;9.40;99.90;;;;;;4169807;28;20025;-66
2023/04/15 01:15:43;;;;;;;8.10;4.93;;;9.30;99.90;;;;;;4174149;28;20033;-67
2023/04/15 01:17:44;;;;;;;8.68;5.05;;;9.20;99.90;;;;;;4164866;28;20116;-67
2023/04/15 01:19:45;;;;;;;6.57;4.40;;;9.20;99.90;;;;;;4164760;28;20468;-66
2023/04/15 01:21:46;;;;;;;7.03;4.55;;;9.10;99.90;;;;;;4168362;28;20037;-66
2023/04/15 01:23:47;;;;;;;8.13;4.30;;;9.20;99.90;;;;;;4170030;28;20040;-66
2023/04/15 01:25:49;;;;;;;8.10;4.60;;;9.20;99.90;;;;;;4168777;28;20033;-66
2023/04/15 01:27:50;;;;;;;8.98;5.43;;;9.10;99.90;;;;;;4169868;28;20029;-66
2023/04/15 01:29:50;;;;;;;7.32;4.63;;;9.10;99.90;;;;;;4168238;28;20044;-66
2023/04/15 01:31:52;;;;;;;8.50;4.57;;;9.10;99.90;;;;;;4168962;28;20047;-67
2023/04/15 01:33:53;;;;;;;8.73;4.90;;;9.10;99.90;;;;;;4171570;28;20121;-66
2023/04/15 01:35:54;;;;;;;6.47;3.95;;;9.10;99.90;;;;;;4169536;28;20090;-66
2023/04/15 01:38:03;;;;;;;7.53;4.20;;;9.20;99.90;;;;;;4173622;28;20381;-66
2023/04/15 01:40:04;;;;;;;10.05;4.10;;;9.20;99.90;;;;;;4166741;28;20048;-67
2023/04/15 01:42:05;;;;;;;5.90;3.97;;;9.30;99.90;;;;;;4171577;28;20036;-66
2023/04/15 01:44:06;;;;;;;10.30;4.43;;;9.30;99.90;;;;;;4177787;28;20029;-66
2023/04/15 01:46:26;;;;;;;8.43;4.53;;;9.40;99.90;;;;;;4120710;28;20610;-66
2023/04/15 01:48:46;;;;;;;7.05;4.45;;;9.40;99.90;;;;;;4111663;28;20060;-65
2023/04/15 01:51:05;;;;;;;5.95;4.30;;;9.50;99.90;;;;;;4137761;28;20111;-66
2023/04/15 01:53:25;;;;;;;7.85;4.75;;;9.50;99.90;;;;;;4113335;28;20084;-66
2023/04/15 01:55:44;;;;;;;6.88;3.95;;;9.50;99.90;;;;;;4086599;28;20084;-67
2023/04/15 01:58:03;;;;;;;7.15;3.90;;;9.60;99.90;;;;;;4152290;28;20044;-66
2023/04/15 02:00:23;;;;;;;9.02;4.55;;;9.50;99.90;;;;;;4133911;28;20493;-66
2023/04/15 02:02:43;;;;;;;9.82;4.90;;;9.50;99.90;;;;;;4131586;28;20500;-66
2023/04/15 02:05:03;;;;;;;7.40;4.28;;;9.40;99.90;;;;;;4157644;28;20072;-66
2023/04/15 02:07:23;;;;;;;7.28;4.22;;;9.50;99.90;;;;;;4157536;28;20032;-66
2023/04/15 02:09:42;;;;;;;11.77;4.65;;;9.40;99.90;;;;;;4145273;28;20048;-66
2023/04/15 02:12:02;;;;;;;6.35;4.32;;;9.40;99.90;;;;;;4155178;28;20376;-67
2023/04/15 02:14:21;;;;;;;7.18;4.47;;;9.40;99.90;;;;;;4078130;28;20063;-67
2023/04/15 02:16:40;;;;;;;12.07;4.97;;;9.40;99.90;;;;;;4156940;28;20117;-66
2023/04/15 02:18:59;;;;;;;9.98;4.70;;;9.50;99.90;;;;;;4131500;28;20124;-66
2023/04/15 02:21:19;;;;;;;7.90;4.65;;;9.50;99.90;;;;;;4130551;28;20447;-66
2023/04/15 02:23:38;;;;;;;7.20;4.53;;;9.50;99.90;;;;;;4157870;28;20063;-66
2023/04/15 02:25:58;;;;;;;9.82;5.05;;;9.40;99.90;;;;;;4123158;28;20131;-67
2023/04/15 02:28:17;;;;;;;10.68;5.20;;;9.30;99.90;;;;;;4111792;28;20024;-66
2023/04/15 02:30:37;;;;;;;8.15;4.55;;;9.20;99.90;;;;;;4141596;28;20028;-65
2023/04/15 02:32:56;;;;;;;10.30;4.75;;;9.20;99.90;;;;;;4113034;28;20045;-65
2023/04/15 02:35:17;;;;;;;9.75;4.85;;;9.20;99.90;;;;;;4089244;28;20045;-68
2023/04/15 02:37:42;;;;;;;7.63;4.80;;;9.10;99.90;;;;;;4116403;28;20064;-65
2023/04/15 02:40:02;;;;;;;9.02;5.13;;;9.00;99.90;;;;;;4116173;28;20087;-68
2023/04/15 02:42:21;;;;;;;5.90;4.40;;;9.00;99.90;;;;;;4146552;28;20424;-68
2023/04/15 02:44:40;;;;;;;8.60;4.90;;;9.00;99.90;;;;;;4160657;28;20036;-68
2023/04/15 02:46:59;;;;;;;7.57;4.93;;;9.00;99.90;;;;;;4134040;28;20502;-67
2023/04/15 02:49:22;;;;;;;8.88;5.05;;;9.00;99.90;;;;;;4130601;28;20127;-68
2023/04/15 02:51:41;;;;;;;6.53;4.25;;;9.00;99.90;;;;;;4136311;28;20070;-68
2023/04/15 02:54:00;;;;;;;9.88;5.53;;;9.00;99.90;;;;;;4127189;28;20422;-66
2023/04/15 02:56:22;;;;;;;12.60;5.70;;;9.00;99.90;;;;;;4159585;28;20048;-66
2023/04/15 02:58:42;;;;;;;12.20;6.18;;;9.10;99.90;;;;;;4150171;28;20064;-66
2023/04/15 03:01:02;;;;;;;7.43;4.93;;;9.10;99.90;;;;;;4096820;28;20392;-66
2023/04/15 03:03:20;;;;;;;8.80;4.93;;;9.00;99.90;;;;;;4143406;28;20159;-66
2023/04/15 03:05:39;;;;;;;8.85;5.22;;;9.00;99.90;;;;;;4108455;28;20065;-65
2023/04/15 03:08:00;;;;;;;7.25;4.35;;;9.00;99.90;;;;;;4143556;28;20043;-66
2023/04/15 03:10:20;;;;;;;8.50;5.28;;;9.00;99.90;;;;;;4142997;28;20511;-66
2023/04/15 03:12:39;;;;;;;9.23;5.18;;;9.00;99.90;;;;;;4096021;28;20041;-66
2023/04/15 03:15:00;;;;;;;7.75;5.45;;;8.90;99.90;;;;;;4090387;28;20031;-66
2023/04/15 03:17:20;;;;;;;9.57;5.50;;;8.90;99.90;;;;;;4117802;28;20451;-66
2023/04/15 03:19:39;;;;;;;9.32;5.40;;;8.80;99.90;;;;;;4141411;28;20084;-66
2023/04/15 03:21:59;;;;;;;9.45;6.03;;;8.80;99.90;;;;;;4144406;28;20388;-67
2023/04/15 03:24:19;;;;;;;9.23;5.22;;;8.80;99.90;;;;;;4131631;28;20119;-66
2023/04/15 03:26:39;;;;;;;8.52;4.57;;;8.60;99.90;;;;;;4130865;28;20500;-68
2023/04/15 03:28:58;;;;;;;8.02;5.05;;;8.50;99.90;;;;;;4125578;28;20078;-67
2023/04/15 03:31:17;;;;;;;9.63;5.72;;;8.30;99.90;;;;;;4113678;28;20559;-68
2023/04/15 03:33:36;;;;;;;9.82;5.68;;;8.00;99.90;;;;;;4115381;28;20104;-67
2023/04/15 03:35:56;;;;;;;11.23;6.50;;;7.80;99.90;;;;;;4114247;28;20399;-65
2023/04/15 03:38:15;;;;;;;9.60;5.93;;;7.60;99.90;;;;;;4089188;28;20440;-66
2023/04/15 03:40:34;;;;;;;9.60;6.00;;;7.60;99.90;;;;;;4113984;28;20164;-65
2023/04/15 03:42:53;;;;;;;7.15;5.10;;;7.60;99.90;;;;;;4088861;28;20060;-65
2023/04/15 03:45:13;;;;;;;9.63;5.78;;;7.50;99.90;;;;;;4104753;28;20070;-66
2023/04/15 03:47:32;;;;;;;7.03;5.03;;;7.50;99.90;;;;;;4162006;28;20125;-68
2023/04/15 03:49:51;;;;;;;6.68;4.93;;;7.50;99.90;;;;;;4133528;28;20087;-66
2023/04/15 03:52:10;;;;;;;8.35;5.00;;;7.50;99.90;;;;;;4155838;28;20584;-65
2023/04/15 03:54:29;;;;;;;8.30;5.30;;;7.50;99.90;;;;;;4133213;28;20039;-65
2023/04/15 03:56:48;;;;;;;8.50;5.20;;;7.50;99.90;;;;;;4135585;28;20041;-65
2023/04/15 03:59:08;;;;;;;7.78;4.72;;;7.50;99.90;;;;;;4158306;28;20530;-65
2023/04/15 04:01:27;;;;;;;8.65;5.30;;;7.60;99.90;;;;;;4158799;28;20103;-68
2023/04/15 04:03:46;;;;;;;8.10;5.07;;;7.60;99.90;;;;;;4111068;28;20043;-68
2023/04/15 04:06:06;;;;;;;6.78;4.65;;;7.60;99.90;;;;;;4178757;28;20044;-68
2023/04/15 04:08:26;;;;;;;8.07;5.55;;;7.50;99.90;;;;;;4129298;28;20048;-68
2023/04/15 04:10:45;;;;;;;8.35;5.32;;;7.50;99.90;;;;;;4145989;28;20035;-65
2023/04/15 04:13:05;;;;;;;12.40;6.30;;;7.30;99.90;;;;;;4123273;28;20035;-68
2023/04/15 04:15:24;;;;;;;9.80;6.38;;;7.20;99.90;;;;;;4117589;28;20135;-67
2023/04/15 04:17:43;;;;;;;8.80;5.60;;;7.10;99.90;;;;;;4158996;28;20038;-67
2023/04/15 04:19:44;;;;;;;11.75;6.40;;;7.10;99.90;;;;;;4162487;28;20037;-68
2023/04/15 04:21:44;;;;;;;12.68;6.50;;;6.90;99.90;;;;;;4164548;28;20065;-67
2023/04/15 04:23:45;;;;;;;10.20;6.95;;;6.90;99.90;;;;;;4170116;28;20038;-67
2023/04/15 04:25:46;;;;;;;9.18;6.40;;;6.90;99.90;;;;;;4169325;28;20029;-67
2023/04/15 04:27:47;;;;;;;9.80;6.60;;;6.90;99.90;;;;;;4164348;28;20055;-67
2023/04/15 04:29:48;;;;;;;9.23;5.80;;;6.90;99.90;;;;;;4171514;28;20039;-67
2023/04/15 04:31:49;;;;;;;9.35;6.13;;;6.90;99.90;;;;;;4166974;28;20488;-67
2023/04/15 04:33:50;;;;;;;11.52;6.85;;;7.00;99.90;;;;;;4165357;28;20048;-65
2023/04/15 04:35:51;;;;;;;8.50;5.90;;;7.00;99.90;;;;;;4163658;28;20033;-66
2023/04/15 04:37:52;;;;;;;9.73;6.15;;;7.00;99.90;;;;;;4169001;28;20044;-66
2023/04/15 04:39:53;;;;;;;8.43;5.32;;;7.10;99.90;;;;;;4165656;28;20404;-67
2023/04/15 04:41:53;;;;;;;8.38;5.25;;;7.20;99.90;;;;;;4166480;28;20037;-67
2023/04/15 04:43:54;;;;;;;9.73;5.30;;;7.30;99.90;;;;;;4167172;28;20037;-67
2023/04/15 04:45:55;;;;;;;7.07;4.88;;;7.40;99.90;;;;;;4167146;28;20037;-67
2023/04/15 04:47:55;;;;;;;9.52;5.70;;;7.50;99.90;;;;;;4169078;28;20550;-67
2023/04/15 04:49:56;;;;;;;7.80;4.93;;;7.50;99.90;;;;;;4166497;28;20033;-67
2023/04/15 04:51:57;;;;;;;7.28;5.22;;;7.60;99.90;;;;;;4164305;28;20136;-67
2023/04/15 04:53:57;;;;;;;8.00;4.65;;;7.70;99.90;;;;;;4169923;28;20107;-67
2023/04/15 04:55:58;;;;;;;7.47;5.03;;;7.70;99.90;;;;;;4165094;28;20049;-67
2023/04/15 04:57:59;;;;;;;7.55;5.22;;;7.80;99.90;;;;;;4168452;28;20488;-67
2023/04/15 05:00:00;;;;;;;8.00;5.30;;;7.80;99.90;;;;;;4167257;28;20032;-66
2023/04/15 05:02:02;;;;;;;7.40;4.90;;;7.90;99.90;;;;;;4167227;28;20104;-67
2023/04/15 05:04:03;;;;;;;8.13;4.88;;;7.90;99.90;;;;;;4167516;28;20034;-68
2023/04/15 05:06:06;;;;;;;7.00;4.57;;;7.90;99.90;;;;;;4165284;28;20029;-67
2023/04/15 05:08:06;;;;;;;7.40;5.03;;;8.00;99.90;;;;;;4166672;28;20030;-67
2023/04/15 05:10:08;;;;;;;6.53;4.80;;;8.00;99.90;;;;;;4167335;28;20040;-68
2023/04/15 05:12:13;;;;;;;7.50;4.95;;;8.00;99.90;;;;;;4168802;28;20497;-67
2023/04/15 05:14:14;;;;;;;8.10;4.57;;;8.00;99.90;;;;;;4165335;28;20029;-66
2023/04/15 05:16:15;;;;;;;7.10;5.38;;;8.10;99.90;;;;;;4168560;28;20046;-66
2023/04/15 05:18:16;;;;;;;8.10;5.32;;;8.00;99.90;;;;;;4169511;28;20113;-67
2023/04/15 05:20:17;;;;;;;8.18;5.55;;;8.00;99.90;;;;;;4165467;28;20551;-66
2023/04/15 05:22:17;;;;;;;7.60;5.50;;;8.00;99.90;;;;;;4168087;28;20427;-67
2023/04/15 05:24:18;;;;;;;7.82;5.30;;;8.10;99.90;;;;;;4169237;28;20065;-66
2023/04/15 05:26:20;;;;;;;8.10;5.93;;;8.10;99.90;;;;;;4165613;28;20481;-66
2023/04/15 05:28:21;;;;;;;6.85;5.25;;;8.10;99.90;;;;;;4156891;28;20515;-66
2023/04/15 05:30:21;;;;;;;7.43;5.30;;;8.10;99.90;;;;;;4152852;28;20025;-66
2023/04/15 05:32:22;;;;;;;9.65;5.65;;;8.10;99.90;;;;;;4174322;28;20028;-66
2023/04/15 05:34:22;;;;;;;8.15;5.85;;;8.10;99.90;;;;;;4168435;28;20481;-66
2023/04/15 05:36:23;;;;;;;8.27;5.53;;;8.10;99.90;;;;;;4168049;28;20030;-67
2023/04/15 05:38:23;;;;;;;7.43;5.05;;;8.10;99.90;;;;;;4165182;28;20516;-66
2023/04/15 05:40:24;;;;;;;7.38;4.97;;;8.10;99.90;;;;;;4166944;28;20088;-66
2023/04/15 05:42:25;;;;;;;6.75;5.45;;;8.20;99.90;;;;;;4167599;28;20053;-67
2023/04/15 05:44:25;;;;;;;5.85;4.72;;;8.20;99.90;;;;;;4166274;28;20026;-67
2023/04/15 05:46:44;;;;;;;7.60;5.82;;;8.20;99.90;;;;;;4155023;28;20507;-67
2023/04/15 05:48:57;;;;;;;11.05;6.13;;;8.30;99.90;;;;;;4157103;28;20057;-66
2023/04/15 05:50:58;;;;;;;7.97;5.80;;;8.30;99.90;;;;;;4137554;28;20543;-65
2023/04/15 05:52:59;;;;;;;8.98;5.82;;;8.40;99.90;;;;;;4168533;28;20068;-66
2023/04/15 05:54:59;;;;;;;7.90;6.50;;;8.40;99.90;;;;;;4166479;28;20404;-66
2023/04/15 05:57:00;;;;;;;9.80;5.97;;;8.50;99.90;;;;;;4165434;28;20108;-66
2023/04/15 05:59:01;;;;;;;8.73;6.25;;;8.50;99.90;;;;;;4168468;28;20037;-67
2023/04/15 06:01:02;;;;;;;9.95;6.90;;;8.60;99.90;;;;;;4166740;28;20508;-66
2023/04/15 06:03:03;;;;;;;8.15;6.10;;;8.70;99.90;;;;;;4168903;28;20044;-66
2023/04/15 06:05:08;;;;;;;8.77;6.25;;;8.70;99.90;;;;;;4164666;28;20481;-67
2023/04/15 06:07:09;;;;;;;8.63;6.18;;;8.80;99.90;;;;;;4163315;28;20065;-66
2023/04/15 06:09:10;;;;;;;10.32;6.75;;;8.90;99.90;;;;;;4168072;28;20103;-67
2023/04/15 06:11:10;;;;;;;9.82;6.95;;;8.80;99.90;;;;;;4168360;28;20348;-66
2023/04/15 06:13:11;;;;;;;9.05;6.63;;;8.80;99.90;;;;;;4169473;28;20110;-66
2023/04/15 06:15:12;;;;;;;9.15;6.40;;;8.80;99.90;;;;;;4166669;28;20531;-67
2023/04/15 06:17:13;;;;;;;10.35;6.78;;;8.90;99.90;;;;;;4167996;28;20048;-66
2023/04/15 06:19:14;;;;;;;8.48;6.18;;;8.90;99.90;;;;;;4170892;28;20029;-66
2023/04/15 06:21:15;;;;;;;11.27;7.05;;;8.90;99.90;;;;;;4170312;28;20033;-66
2023/04/15 06:23:15;;;;;;;12.07;7.63;;;9.00;99.90;;;;;;4173919;28;20068;-66
2023/04/15 06:25:16;;;;;;;10.65;7.70;;;9.00;99.90;;;;;;4169447;28;20169;-66
2023/04/15 06:27:17;;;;;;;11.77;8.48;;;9.00;99.90;;;;;;4168167;28;20029;-66
2023/04/15 06:29:18;;;;;;;10.68;7.40;;;9.00;99.90;;;;;;4168061;28;20079;-66
2023/04/15 06:31:18;;;;;;;11.65;8.00;;;9.10;99.90;;;;;;4166248;28;20033;-67
2023/04/15 06:33:19;;;;;;;10.68;7.65;;;9.10;99.90;;;;;;4173874;28;20031;-66
2023/04/15 06:35:20;;;;;;;14.27;9.07;;;9.20;99.90;;;;;;4166090;28;20038;-66
2023/04/15 06:37:21;;;;;;;13.43;9.35;;;9.20;99.90;;;;;;4171624;28;20128;-66
2023/04/15 06:39:22;;;;;;;13.05;9.38;;;9.10;99.90;;;;;;4166826;28;20404;-66
2023/04/15 06:41:22;;;;;;;14.35;9.93;;;9.10;99.90;;;;;;4171938;28;20029;-67
2023/04/15 06:43:23;;;;;;;11.55;8.35;;;9.20;99.90;;;;;;4167979;28;20476;-67
2023/04/15 06:45:24;;;;;;;12.63;8.25;;;9.20;99.90;;;;;;4169874;28;20082;-66
2023/04/15 06:47:25;;;;;;;12.13;8.55;;;9.30;99.90;;;;;;4166263;28;20172;-66
2023/04/15 06:49:26;;;;;;;11.55;7.93;;;9.30;99.90;;;;;;4167023;28;20030;-66
2023/04/15 06:51:26;;;;;;;12.52;7.95;;;9.40;99.90;;;;;;4171186;28;20030;-67
2023/04/15 06:53:27;;;;;;;11.57;8.35;;;9.50;99.90;;;;;;4168376;28;20090;-67
2023/04/15 06:55:27;;;;;;;11.75;8.10;;;9.50;99.90;;;;;;4168710;28;20041;-66
2023/04/15 06:57:28;;;;;;;11.98;8.27;;;9.60;99.90;;;;;;4169595;28;20030;-67
2023/04/15 06:59:28;;;;;;;10.93;8.23;;;9.70;99.90;;;;;;4172530;28;20484;-67
2023/04/15 07:01:29;;;;;;;11.32;8.18;;;9.70;99.90;;;;;;4169833;28;20468;-67
2023/04/15 07:03:30;;;;;;;11.38;9.02;;;9.80;99.90;;;;;;4167532;28;20033;-67
2023/04/15 07:05:31;;;;;;;12.98;9.00;;;9.80;99.90;;;;;;4168005;28;20048;-67
2023/04/15 07:07:32;;;;;;;13.98;9.32;;;9.80;99.90;;;;;;4169717;28;20409;-67
2023/04/15 07:09:33;;;;;;;13.57;8.73;;;9.80;99.90;;;;;;4171537;28;20545;-67
2023/04/15 07:11:33;;;;;;;15.15;10.25;;;9.90;99.90;;;;;;4166620;28;20116;-67
2023/04/15 07:13:34;;;;;;;13.23;8.93;;;9.80;99.90;;;;;;4169925;28;20037;-66
2023/04/15 07:15:35;;;;;;;11.15;8.45;;;9.90;99.90;;;;;;4170954;28;20081;-66
2023/04/15 07:17:35;;;;;;;11.02;8.13;;;10.00;99.90;;;;;;4172692;28;20053;-66
2023/04/15 07:19:37;;;;;;;11.15;7.72;;;10.20;99.90;;;;;;4172642;28;20109;-66
2023/04/15 07:21:37;;;;;;;11.98;8.30;;;10.30;99.90;;;;;;4167131;28;20049;-65
2023/04/15 07:23:38;;;;;;;12.55;7.80;;;10.30;99.90;;;;;;4169005;28;20066;-66
2023/04/15 07:25:39;;;;;;;11.95;8.23;;;10.50;99.90;;;;;;4172237;28;20056;-66
2023/04/15 07:27:39;;;;;;;11.65;8.55;;;10.50;99.90;;;;;;4171471;28;20342;-66
2023/04/15 07:29:40;;;;;;;10.40;7.95;;;10.60;99.90;;;;;;4171152;28;20034;-67
2023/04/15 07:31:41;;;;;;;12.93;8.93;;;10.70;99.90;;;;;;4166104;28;20032;-67
2023/04/15 07:33:41;;;;;;;11.85;8.27;;;10.60;99.90;;;;;;4164145;28;20025;-66
2023/04/15 07:35:42;;;;;;;13.00;8.25;;;10.60;99.90;;;;;;4165527;28;20053;-67
2023/04/15 07:37:42;;;;;;;10.32;7.28;;;10.70;99.90;;;;;;4168785;28;20033;-66
2023/04/15 07:39:43;;;;;;;8.77;6.85;;;10.80;99.90;;;;;;4170573;28;20041;-67
2023/04/15 07:41:44;;;;;;;10.05;7.20;;;10.90;99.90;;;;;;4158589;28;20068;-67
2023/04/15 07:43:44;;;;;;;10.88;7.20;;;11.00;99.90;;;;;;4161319;28;20034;-67
2023/04/15 07:45:45;;;;;;;11.35;7.50;;;11.10;99.90;;;;;;4158371;28;20033;-66
2023/04/15 07:47:45;;;;;;;9.98;7.45;;;11.20;99.90;;;;;;4149419;28;20029;-67
2023/04/15 07:49:46;;;;;;;10.27;6.85;;;11.40;99.90;;;;;;4158592;28;20393;-67
2023/04/15 07:51:48;;;;;;;8.65;6.32;;;11.40;99.90;;;;;;4152257;28;20036;-67
2023/04/15 07:53:49;;;;;;;9.02;6.32;;;11.60;99.90;;;;;;4167575;28;20144;-66
2023/04/15 07:55:50;;;;;;;7.15;5.65;;;11.70;99.90;;;;;;4171265;28;20044;-66
2023/04/15 07:57:50;;;;;;;7.28;5.70;;;11.90;99.90;;;;;;4169969;28;20087;-67
2023/04/15 07:59:51;;;;;;;8.93;5.78;;;12.00;99.90;;;;;;4169922;28;20038;-66
2023/04/15 08:01:51;;;;;;;6.18;5.10;;;12.10;99.90;;;;;;4166037;28;20033;-66
2023/04/15 08:03:52;;;;;;;7.22;5.40;;;12.30;99.90;;;;;;4174950;28;20468;-67
2023/04/15 08:05:53;;;;;;;5.97;4.65;;;12.40;99.90;;;;;;4167662;28;20029;-67
2023/04/15 08:07:53;;;;;;;7.90;4.90;;;12.60;99.90;;;;;;4171000;28;20039;-67
2023/04/15 08:09:54;;;;;;;6.35;4.70;;;12.70;99.90;;;;;;4169207;28;21327;-67
2023/04/15 08:11:55;;;;;;;6.35;4.50;;;12.70;99.90;;;;;;4167207;28;20052;-67
2023/04/15 08:13:56;;;;;;;7.43;4.13;;;12.80;99.90;;;;;;4167912;28;20091;-67
2023/04/15 08:16:21;;;;;;;4.78;3.65;;;12.80;99.90;;;;;;4168845;28;20034;-67
2023/04/15 08:18:21;;;;;;;5.07;3.72;;;12.80;99.90;;;;;;4170575;28;20044;-67
2023/04/15 08:20:22;;;;;;;5.13;4.10;;;12.60;99.90;;;;;;4168811;28;20049;-67
2023/04/15 08:22:23;;;;;;;8.68;4.18;;;12.50;99.90;;;;;;4170254;28;20060;-67
2023/04/15 08:24:25;;;;;;;4.07;3.17;;;12.50;99.90;;;;;;4171469;28;20100;-67
2023/04/15 08:26:25;;;;;;;4.75;3.58;;;12.50;99.90;;;;;;4164380;28;20044;-67
2023/04/15 08:28:26;;;;;;;4.57;3.17;;;12.60;99.90;;;;;;4169904;28;20029;-67
2023/04/15 08:30:27;;;;;;;3.72;3.22;;;12.60;99.90;;;;;;4168274;28;20033;-66
2023/04/15 08:32:28;;;;;;;5.85;3.40;;;12.70;99.90;;;;;;4172855;28;20025;-67
2023/04/15 08:34:29;;;;;;;3.80;2.78;;;12.80;99.90;;;;;;4162056;28;20026;-67
2023/04/15 08:36:31;;;;;;;4.05;2.70;;;12.80;99.90;;;;;;4168595;28;20484;-67
2023/04/15 08:38:31;;;;;;;4.00;3.00;;;12.80;99.90;;;;;;4165281;28;20463;-67
2023/04/15 08:40:44;;;;;;;4.03;2.90;;;12.90;99.90;;;;;;4166322;28;20033;-67
2023/04/15 08:42:50;;;;;;;4.03;3.38;;;12.90;99.90;;;;;;4169069;28;20029;-67
2023/04/15 08:44:51;;;;;;;4.25;3.10;;;13.00;99.90;;;;;;4165076;28;20025;-67
2023/04/15 08:46:53;;;;;;;4.95;3.30;;;13.00;99.90;;;;;;4166033;28;20022;-66
2023/04/15 08:48:56;;;;;;;4.25;3.47;;;13.00;99.90;;;;;;4173339;28;20029;-67
2023/04/15 08:50:57;;;;;;;5.18;3.40;;;13.10;99.90;;;;;;4171504;28;20431;-67
2023/04/15 08:52:59;;;;;;;4.13;3.30;;;13.30;99.90;;;;;;4169996;28;20029;-67
2023/04/15 08:55:01;;;;;;;3.72;2.92;;;13.30;99.90;;;;;;4167460;28;20045;-67
2023/04/15 08:57:02;;;;;;;;;;;13.40;99.90;;;;;;4166270;28;20029;-67
2023/04/15 08:59:04;;;;;;;3.85;3.00;;;13.50;99.90;;;;;;4166637;28;20067;-67
2023/04/15 09:01:05;;;;;;;4.45;2.92;;;13.60;99.90;;;;;;4165107;28;20057;-67
2023/04/15 09:03:06;;;;;;;4.35;2.60;;;13.60;99.90;;;;;;4167835;28;20040;-67
2023/04/15 09:05:07;;;;;;;3.20;2.53;;;13.80;99.90;;;;;;4165859;28;20061;-67
2023/04/15 09:07:08;;;;;;;3.55;2.80;;;13.90;99.90;;;;;;4164017;28;20036;-67
2023/04/15 09:09:08;;;;;;;4.07;3.05;;;13.90;99.90;;;;;;4166530;28;20044;-67
2023/04/15 09:11:10;;;;;;;3.85;2.80;;;14.10;99.90;;;;;;4165805;28;20052;-67
2023/04/15 09:13:11;;;;;;;3.88;3.08;;;14.20;99.90;;;;;;4167893;28;20476;-67
2023/04/15 09:15:11;;;;;;;5.30;3.65;;;14.30;99.90;;;;;;4164109;28;20041;-67
2023/04/15 09:17:12;;;;;;;4.22;3.55;;;14.40;99.90;;;;;;4165603;28;20040;-67
2023/04/15 09:19:23;;;;;;;4.97;3.40;;;14.40;99.90;;;;;;4165226;28;20393;-67
2023/04/15 09:21:24;;;;;;;6.32;3.90;;;14.50;99.90;;;;;;4166683;28;20029;-67
2023/04/15 09:23:24;;;;;;;3.85;3.00;;;14.50;99.90;;;;;;4167202;28;20026;-66
2023/04/15 09:25:27;;;;;;;4.85;2.90;;;14.60;99.90;;;;;;4166424;28;20121;-66
2023/04/15 09:27:27;;;;;;;5.13;3.50;;;14.70;99.90;;;;;;4168657;28;20083;-67
2023/04/15 09:29:28;;;;;;;4.20;2.92;;;14.70;99.90;;;;;;4163434;28;20037;-66
2023/04/15 09:31:30;;;;;;;5.55;2.90;;;14.70;99.90;;;;;;4165107;28;20120;-67
2023/04/15 09:33:30;;;;;;;3.83;2.70;;;14.80;99.90;;;;;;4167557;28;20030;-66
2023/04/15 09:35:31;;;;;;;3.22;2.38;;;14.90;99.90;;;;;;4164252;28;20275;-68
2023/04/15 09:37:35;;;;;;;3.45;2.40;;;14.80;99.90;;;;;;4166308;28;20044;-68
2023/04/15 09:39:49;;;;;;;2.60;2.30;;;14.90;99.90;;;;;;4169880;28;20128;-67
2023/04/15 09:42:06;;;;;;;4.03;2.95;;;15.00;99.90;;;;;;4165029;28;20044;-67
2023/04/15 09:44:24;;;;;;;3.72;2.30;;;15.20;99.90;;;;;;4164305;28;20044;-67
2023/04/15 09:46:44;;;;;;;5.68;2.97;;;15.30;99.90;;;;;;4166936;28;20057;-67
2023/04/15 09:48:44;;;;;;;4.00;3.33;;;15.10;99.90;;;;;;4166128;28;20388;-67
2023/04/15 09:50:47;;;;;;;4.32;3.33;;;15.10;99.90;;;;;;4167238;28;20041;-68
2023/04/15 09:52:48;;;;;;;4.20;3.15;;;15.10;99.90;;;;;;4162729;28;20040;-67
2023/04/15 09:54:54;;;;;;;4.68;3.40;;;15.10;99.90;;;;;;4168565;28;20399;-67
2023/04/15 09:56:55;;;;;;;4.53;3.08;;;15.20;99.90;;;;;;4168416;28;20123;-67
2023/04/15 09:58:56;;;;;;;4.45;2.90;;;15.20;99.90;;;;;;4164359;28;20040;-67
2023/04/15 10:00:58;;;;;;;4.63;3.30;;;15.30;99.90;;;;;;4168021;28;20057;-67
2023/04/15 10:02:58;;;;;;;4.60;3.27;;;15.30;99.90;;;;;;4168961;28;20037;-67
2023/04/15 10:05:01;;;;;;;3.90;3.05;;;15.30;99.90;;;;;;4165918;28;20067;-67
2023/04/15 10:07:04;;;;;;;4.90;3.50;;;15.20;99.90;;;;;;4163342;28;20045;-68
2023/04/15 10:09:06;;;;;;;3.17;2.55;;;15.20;99.90;;;;;;4169937;28;20064;-67
2023/04/15 10:11:07;;;;;;;3.95;3.10;;;15.20;99.90;;;;;;4163935;28;20034;-67
2023/04/15 10:13:09;;;;;;;5.13;3.28;;;15.10;99.90;;;;;;4164636;28;20033;-67
2023/04/15 10:15:16;;;;;;;5.75;3.58;;;15.10;99.90;;;;;;4168503;28;20047;-67
2023/04/15 10:17:17;;;;;;;5.47;3.95;;;15.20;99.90;;;;;;4170520;28;20040;-67
2023/04/15 10:19:25;;;;;;;4.15;3.45;;;15.20;99.90;;;;;;4172683;28;20029;-67
2023/04/15 10:21:27;;;;;;;4.53;3.40;;;15.20;99.90;;;;;;4170718;28;20037;-67
2023/04/15 10:23:28;;;;;;;5.55;3.65;;;15.30;99.90;;;;;;4169613;28;20472;-67
2023/04/15 10:25:29;;;;;;;5.60;3.92;;;15.20;99.90;;;;;;4166418;28;20044;-67
2023/04/15 10:27:30;;;;;;;6.38;4.22;;;15.10;99.90;;;;;;4168078;28;20553;-67
2023/04/15 10:29:31;;;;;;;4.88;4.00;;;15.00;99.90;;;;;;4169606;28;20366;-67
2023/04/15 10:31:32;;;;;;;5.35;3.47;;;14.90;99.90;;;;;;4165326;28;20029;-67
2023/04/15 10:33:33;;;;;;;3.50;2.80;;;15.00;99.90;;;;;;4162513;28;20072;-67
2023/04/15 10:35:35;;;;;;;5.28;3.45;;;14.90;99.90;;;;;;4169338;28;20496;-67
2023/04/15 10:37:37;;;;;;;6.57;3.42;;;14.90;99.90;;;;;;4167304;28;20033;-67
2023/04/15 10:39:40;;;;;;;3.85;2.92;;;14.90;99.90;;;;;;4163569;28;20132;-67
2023/04/15 10:41:41;;;;;;;3.95;3.00;;;14.90;99.90;;;;;;4160051;28;20058;-67
2023/04/15 10:44:08;;;;;;;4.45;2.70;;;15.00;99.90;;;;;;4167427;28;20492;-67
2023/04/15 10:46:09;;;;;;;5.18;3.10;;;15.10;99.90;;;;;;4164271;28;20041;-67
2023/04/15 10:48:15;;;;;;;3.88;3.05;;;15.10;99.90;;;;;;4169344;28;20523;-67
2023/04/15 10:50:18;;;;;;;4.35;3.13;;;15.20;99.90;;;;;;4167996;28;20048;-68
2023/04/15 10:52:23;;;;;;;;;;;15.20;99.90;;;;;;4166362;28;20036;-67
2023/04/15 10:54:23;;;;;;;3.70;2.78;;;15.10;99.90;;;;;;4165823;28;19913;-67
2023/04/15 10:56:24;;;;;;;4.38;3.10;;;15.00;99.90;;;;;;4170145;28;20120;-67